createdAt,value
2023-05-22T00:02:04.670Z,9.67
2023-05-22T00:04:33.191Z,9.80
2023-05-22T00:07:01.474Z,9.10
2023-05-22T00:09:29.464Z,9.50
2023-05-22T00:11:58.815Z,9.80
2023-05-22T00:14:26.767Z,9.30
2023-05-22T00:16:55.479Z,9.67
2023-05-22T00:19:23.769Z,9.33
2023-05-22T00:21:52.468Z,9.63
2023-05-22T00:24:20.897Z,9.47
2023-05-22T00:26:49.060Z,9.57
2023-05-22T00:29:18.392Z,9.67
2023-05-22T00:31:46.435Z,9.30
2023-05-22T00:34:14.463Z,9.60
2023-05-22T00:36:42.476Z,9.57
2023-05-22T00:39:11.520Z,9.60
2023-05-22T00:41:39.561Z,9.50
2023-05-22T00:44:08.089Z,9.90
2023-05-22T00:46:38.139Z,9.63
2023-05-22T00:49:06.416Z,9.80
2023-05-22T00:51:34.600Z,9.47
2023-05-22T00:54:02.942Z,9.53
2023-05-22T00:56:30.957Z,9.70
2023-05-22T00:59:00.185Z,9.50
2023-05-22T01:01:33.466Z,9.33
2023-05-22T01:04:05.008Z,9.57
2023-05-22T01:06:33.878Z,9.50
2023-05-22T01:09:01.906Z,9.23
2023-05-22T01:11:37.117Z,9.80
2023-05-22T01:14:12.528Z,9.43
2023-05-22T01:16:48.954Z,9.70
2023-05-22T01:19:53.862Z,9.70
2023-05-22T01:22:40.856Z,9.57
2023-05-22T01:25:33.626Z,9.27
2023-05-22T01:28:20.376Z,9.60
2023-05-22T01:30:55.468Z,9.67
2023-05-22T01:33:26.479Z,9.60
2023-05-22T01:35:58.578Z,9.50
2023-05-22T01:38:27.183Z,9.47
2023-05-22T01:40:55.955Z,9.90
2023-05-22T01:43:23.934Z,9.60
2023-05-22T01:45:53.449Z,9.43
2023-05-22T01:48:21.442Z,9.80
2023-05-22T01:50:54.863Z,9.50
2023-05-22T01:53:31.267Z,9.70
2023-05-22T01:56:06.282Z,9.37
2023-05-22T01:58:40.648Z,10.13
2023-05-22T02:01:11.404Z,10.20
2023-05-22T02:03:41.681Z,9.60
2023-05-22T02:06:14.094Z,9.40
2023-05-22T02:08:43.264Z,9.60
2023-05-22T02:11:13.677Z,9.47
2023-05-22T02:13:42.812Z,9.70
2023-05-22T02:16:12.633Z,9.50
2023-05-22T02:18:41.715Z,9.80
2023-05-22T02:21:09.862Z,9.70
2023-05-22T02:23:38.315Z,10.13
2023-05-22T02:26:06.857Z,9.50
2023-05-22T02:28:34.924Z,9.67
2023-05-22T02:31:03.826Z,9.73
2023-05-22T02:33:33.318Z,10.00
2023-05-22T02:36:01.496Z,9.70
2023-05-22T02:38:29.489Z,9.90
2023-05-22T02:40:57.533Z,10.07
2023-05-22T02:43:25.532Z,9.73
2023-05-22T02:45:53.767Z,9.73
2023-05-22T02:48:21.823Z,10.00
2023-05-22T02:50:51.271Z,9.67
2023-05-22T02:53:19.312Z,10.07
2023-05-22T02:55:48.361Z,9.70
2023-05-22T02:58:17.868Z,9.33
2023-05-22T03:00:46.193Z,9.83
2023-05-22T03:03:14.299Z,9.93
2023-05-22T03:05:43.325Z,9.50
2023-05-22T03:08:12.878Z,9.80
2023-05-22T03:10:43.086Z,9.80
2023-05-22T03:13:11.103Z,9.70
2023-05-22T03:15:39.105Z,9.70
2023-05-22T03:18:13.656Z,10.20
2023-05-22T03:20:42.346Z,9.97
2023-05-22T03:23:13.875Z,9.80
2023-05-22T03:25:42.419Z,9.80
2023-05-22T03:28:10.832Z,10.10
2023-05-22T03:30:41.512Z,9.70
2023-05-22T03:33:15.231Z,9.60
2023-05-22T03:35:44.586Z,9.93
2023-05-22T03:38:14.320Z,9.83
2023-05-22T03:40:42.461Z,10.10
2023-05-22T03:43:11.333Z,9.67
2023-05-22T03:45:40.389Z,9.80
2023-05-22T03:48:10.531Z,9.50
2023-05-22T03:50:38.825Z,10.00
2023-05-22T03:53:07.424Z,10.10
2023-05-22T03:55:36.750Z,9.87
2023-05-22T03:58:04.815Z,9.97
2023-05-22T04:00:33.228Z,10.00
2023-05-22T04:03:01.476Z,9.97
2023-05-22T04:05:30.361Z,10.10
2023-05-22T04:07:58.719Z,9.80
2023-05-22T04:10:26.756Z,9.90
2023-05-22T04:12:56.137Z,10.60
2023-05-22T04:15:24.169Z,10.47
2023-05-22T04:17:53.599Z,10.00
2023-05-22T04:20:23.020Z,10.27
2023-05-22T04:22:52.070Z,10.17
2023-05-22T04:25:20.044Z,9.87
2023-05-22T04:27:48.936Z,9.80
2023-05-22T04:30:18.513Z,9.93
2023-05-22T04:32:46.747Z,10.23
2023-05-22T04:35:18.664Z,10.23
2023-05-22T04:37:46.785Z,10.20
2023-05-22T04:40:15.340Z,10.10
2023-05-22T04:42:44.484Z,10.13
2023-05-22T04:45:14.531Z,10.33
2023-05-22T04:47:43.889Z,9.93
2023-05-22T04:50:14.343Z,9.83
2023-05-22T04:52:42.855Z,9.90
2023-05-22T04:55:12.080Z,10.00
2023-05-22T04:57:40.856Z,9.90
2023-05-22T05:00:10.858Z,9.73
2023-05-22T05:02:39.751Z,9.83
2023-05-22T05:05:10.287Z,10.17
2023-05-22T05:07:39.947Z,10.00
2023-05-22T05:10:09.705Z,9.73
2023-05-22T05:12:38.399Z,9.70
2023-05-22T05:15:08.528Z,9.60
2023-05-22T05:17:36.594Z,9.80
2023-05-22T05:20:07.066Z,9.90
2023-05-22T05:22:37.341Z,9.37
2023-05-22T05:25:10.131Z,9.73
2023-05-22T05:27:40.421Z,9.90
2023-05-22T05:30:10.734Z,9.87
2023-05-22T05:32:49.141Z,9.70
2023-05-22T05:35:26.159Z,10.00
2023-05-22T05:38:12.740Z,9.50
2023-05-22T05:40:43.800Z,10.23
2023-05-22T05:43:15.049Z,10.10
2023-05-22T05:45:43.657Z,9.90
2023-05-22T05:48:12.773Z,9.90
2023-05-22T05:50:44.359Z,9.70
2023-05-22T05:53:14.090Z,9.83
2023-05-22T05:55:46.958Z,10.00
2023-05-22T05:58:15.710Z,9.87
2023-05-22T06:01:00.920Z,9.70
2023-05-22T06:03:29.812Z,9.57
2023-05-22T06:06:29.762Z,9.57
2023-05-22T06:09:17.501Z,9.53
2023-05-22T06:12:04.684Z,9.67
2023-05-22T06:14:33.405Z,9.40
2023-05-22T06:17:01.653Z,9.40
2023-05-22T06:19:29.818Z,9.30
2023-05-22T06:21:57.929Z,9.17
2023-05-22T06:24:27.484Z,9.30
2023-05-22T06:26:55.745Z,9.20
2023-05-22T06:29:23.756Z,9.23
2023-05-22T06:31:54.377Z,9.33
2023-05-22T06:34:23.356Z,9.40
2023-05-22T06:36:52.363Z,9.27
2023-05-22T06:39:24.465Z,9.57
2023-05-22T06:42:08.501Z,9.10
2023-05-22T06:45:07.208Z,9.23
2023-05-22T06:47:44.812Z,8.93
2023-05-22T06:50:12.945Z,9.20
2023-05-22T06:52:40.989Z,9.50
2023-05-22T06:55:11.769Z,9.70
2023-05-22T06:57:54.064Z,9.27
2023-05-22T07:00:22.543Z,8.90
2023-05-22T07:03:04.792Z,9.60
2023-05-22T07:05:39.850Z,9.07
2023-05-22T07:08:09.335Z,9.00
2023-05-22T07:10:37.638Z,9.10
2023-05-22T07:13:07.301Z,9.60
2023-05-22T07:15:35.979Z,9.03
2023-05-22T07:18:06.381Z,9.23
2023-05-22T07:20:34.621Z,9.07
2023-05-22T07:23:12.047Z,9.30
2023-05-22T07:25:40.364Z,9.40
2023-05-22T07:28:11.611Z,9.30
2023-05-22T07:30:50.303Z,9.60
2023-05-22T07:33:18.355Z,9.20
2023-05-22T07:35:46.581Z,9.10
2023-05-22T07:38:14.942Z,9.10
2023-05-22T07:40:50.187Z,8.80
2023-05-22T07:43:20.152Z,9.10
2023-05-22T07:45:48.474Z,9.00
2023-05-22T07:48:18.934Z,9.50
2023-05-22T07:50:47.698Z,9.00
2023-05-22T07:53:17.214Z,9.20
2023-05-22T07:55:46.886Z,9.10
2023-05-22T07:58:15.602Z,9.73
2023-05-22T08:00:46.799Z,9.60
2023-05-22T08:03:15.184Z,8.97
2023-05-22T08:05:43.348Z,9.00
2023-05-22T08:08:11.939Z,9.10
2023-05-22T08:13:12.357Z,9.23
2023-05-22T08:15:40.439Z,9.13
2023-05-22T08:18:09.984Z,9.17
2023-05-22T08:20:39.073Z,9.07
2023-05-22T08:23:07.341Z,9.60
2023-05-22T08:25:35.426Z,9.23
2023-05-22T08:28:03.535Z,9.23
2023-05-22T08:30:31.605Z,9.40
2023-05-22T08:32:59.694Z,8.83
2023-05-22T08:35:29.115Z,9.20
2023-05-22T08:37:57.195Z,9.20
2023-05-22T08:40:33.704Z,9.30
2023-05-22T08:43:01.899Z,9.17
2023-05-22T08:45:34.117Z,9.50
2023-05-22T08:48:06.611Z,9.30
2023-05-22T08:50:41.175Z,9.33
2023-05-22T08:53:13.064Z,9.27
2023-05-22T08:55:41.416Z,9.13
2023-05-22T08:58:11.472Z,9.10
2023-05-22T09:00:39.768Z,9.13
2023-05-22T09:03:13.812Z,9.20
2023-05-22T09:05:43.448Z,9.27
2023-05-22T09:08:19.952Z,9.30
2023-05-22T09:10:49.352Z,9.33
2023-05-22T09:13:27.503Z,9.10
2023-05-22T09:16:00.713Z,9.10
2023-05-22T09:18:30.126Z,9.20
2023-05-22T09:21:00.584Z,9.13
2023-05-22T09:23:29.597Z,8.70
2023-05-22T09:25:59.489Z,9.27
2023-05-22T09:28:29.029Z,9.10
2023-05-22T09:30:57.157Z,9.30
2023-05-22T09:33:25.619Z,9.50
2023-05-22T09:35:54.819Z,9.13
2023-05-22T09:38:28.428Z,9.10
2023-05-22T09:40:57.738Z,9.10
2023-05-22T09:43:26.390Z,8.83
2023-05-22T09:45:58.907Z,9.23
2023-05-22T09:48:27.388Z,8.93
2023-05-22T09:50:56.667Z,9.03
2023-05-22T09:53:29.099Z,8.70
2023-05-22T09:55:58.670Z,9.10
2023-05-22T09:58:29.357Z,9.20
2023-05-22T10:00:58.431Z,8.60
2023-05-22T10:03:28.447Z,9.00
2023-05-22T10:05:57.489Z,8.50
2023-05-22T10:08:29.799Z,8.97
2023-05-22T10:10:58.689Z,8.77
2023-05-22T10:13:27.574Z,8.87
2023-05-22T10:15:56.171Z,8.70
2023-05-22T10:18:25.857Z,9.00
2023-05-22T10:20:55.174Z,8.80
2023-05-22T10:23:23.614Z,8.90
2023-05-22T10:25:54.213Z,8.80
2023-05-22T10:28:30.959Z,9.00
2023-05-22T10:31:04.459Z,8.90
2023-05-22T10:34:05.259Z,8.90
2023-05-22T10:36:46.598Z,8.80
2023-05-22T10:39:37.464Z,8.80
2023-05-22T10:42:07.021Z,8.90
2023-05-22T10:44:35.166Z,9.27
2023-05-22T10:47:11.438Z,8.70
2023-05-22T10:49:43.814Z,9.10
2023-05-22T10:52:14.520Z,8.83
2023-05-22T10:54:44.765Z,8.93
2023-05-22T10:57:17.317Z,8.90
2023-05-22T10:59:48.486Z,9.30
2023-05-22T11:02:22.168Z,9.20
2023-05-22T11:04:50.877Z,8.80
2023-05-22T11:07:19.050Z,8.53
2023-05-22T11:09:48.755Z,8.90
2023-05-22T11:12:28.464Z,8.87
2023-05-22T11:14:59.327Z,9.13
2023-05-22T11:17:29.493Z,8.97
2023-05-22T11:20:04.950Z,8.93
2023-05-22T11:22:38.332Z,8.80
2023-05-22T11:25:10.885Z,8.90
2023-05-22T11:27:42.368Z,8.73
2023-05-22T11:30:12.594Z,8.77
2023-05-22T11:32:44.924Z,8.90
2023-05-22T11:35:15.598Z,9.00
2023-05-22T11:37:43.760Z,8.90
2023-05-22T11:40:16.892Z,8.80
2023-05-22T11:42:46.581Z,8.90
2023-05-22T11:45:15.201Z,8.87
2023-05-22T11:47:44.505Z,8.90
2023-05-22T11:50:15.047Z,8.90
2023-05-22T11:52:46.618Z,8.93
2023-05-22T11:55:14.773Z,8.83
2023-05-22T11:57:43.270Z,8.60
2023-05-22T12:00:14.236Z,8.87
2023-05-22T12:02:47.043Z,8.80
2023-05-22T12:05:16.590Z,9.00
2023-05-22T12:07:45.102Z,8.70
2023-05-22T12:10:15.802Z,8.93
2023-05-22T12:12:44.877Z,8.97
2023-05-22T12:15:15.082Z,9.20
2023-05-22T12:17:44.430Z,8.67
2023-05-22T12:20:14.625Z,8.87
2023-05-22T12:22:43.980Z,8.97
2023-05-22T12:25:17.200Z,8.80
2023-05-22T12:27:46.067Z,8.97
2023-05-22T12:30:16.993Z,8.70
2023-05-22T12:32:49.566Z,9.40
2023-05-22T12:35:18.331Z,9.13
2023-05-22T12:37:50.412Z,8.93
2023-05-22T12:40:19.183Z,8.57
2023-05-22T12:42:48.212Z,8.90
2023-05-22T12:45:18.704Z,9.10
2023-05-22T12:47:47.203Z,8.87
2023-05-22T12:50:15.583Z,9.10
2023-05-22T12:52:43.703Z,9.17
2023-05-22T12:55:12.667Z,8.70
2023-05-22T12:57:40.786Z,9.00
2023-05-22T13:00:10.152Z,8.93
2023-05-22T13:02:39.716Z,8.60
2023-05-22T13:05:08.763Z,9.13
2023-05-22T13:07:37.639Z,8.77
2023-05-22T13:10:07.111Z,9.03
2023-05-22T13:12:35.195Z,8.80
2023-05-22T13:15:03.352Z,9.00
2023-05-22T13:17:31.630Z,8.90
2023-05-22T13:20:01.147Z,9.40
2023-05-22T13:22:29.308Z,9.07
2023-05-22T13:24:57.357Z,9.00
2023-05-22T13:27:25.641Z,8.83
2023-05-22T13:29:53.758Z,8.90
2023-05-22T13:32:21.983Z,8.90
2023-05-22T13:34:50.092Z,9.20
2023-05-22T13:37:19.657Z,9.00
2023-05-22T13:39:47.778Z,8.60
2023-05-22T13:42:15.900Z,9.00
2023-05-22T13:44:44.006Z,9.20
2023-05-22T13:47:12.183Z,9.30
2023-05-22T13:49:40.340Z,8.90
2023-05-22T13:52:08.676Z,9.00
2023-05-22T13:54:38.113Z,8.80
2023-05-22T13:57:06.991Z,8.90
2023-05-22T13:59:35.047Z,8.80
2023-05-22T14:02:03.178Z,8.90
2023-05-22T14:04:31.403Z,9.03
2023-05-22T14:06:59.476Z,8.80
2023-05-22T14:09:27.661Z,8.70
2023-05-22T14:11:57.763Z,9.00
2023-05-22T14:14:26.199Z,8.80
2023-05-22T14:16:54.914Z,9.00
2023-05-22T14:19:23.092Z,8.40
2023-05-22T14:21:52.321Z,9.00
2023-05-22T14:24:21.197Z,8.80
2023-05-22T14:26:49.252Z,9.20
2023-05-22T14:29:18.803Z,9.00
2023-05-22T14:31:51.246Z,8.70
2023-05-22T14:34:20.272Z,8.60
2023-05-22T14:36:48.554Z,8.70
2023-05-22T14:39:16.738Z,9.00
2023-05-22T14:41:44.785Z,8.90
2023-05-22T14:44:12.833Z,8.97
2023-05-22T14:46:42.240Z,9.10
2023-05-22T14:49:10.407Z,8.60
2023-05-22T14:51:38.460Z,9.40
2023-05-22T14:54:06.902Z,8.80
2023-05-22T14:56:35.115Z,9.07
2023-05-22T14:59:03.170Z,8.87
2023-05-22T15:01:31.400Z,8.77
2023-05-22T15:04:00.770Z,9.30
2023-05-22T15:06:29.110Z,8.80
2023-05-22T15:08:57.166Z,8.93
2023-05-22T15:11:26.126Z,8.87
2023-05-22T15:13:55.144Z,9.00
2023-05-22T15:16:23.359Z,9.27
2023-05-22T15:18:51.768Z,8.90
2023-05-22T15:21:21.607Z,8.77
2023-05-22T15:23:49.691Z,8.90
2023-05-22T15:26:17.980Z,9.27
2023-05-22T15:28:46.077Z,8.93
2023-05-22T15:31:14.815Z,8.70
2023-05-22T15:33:42.959Z,8.40
2023-05-22T15:36:11.146Z,8.90
2023-05-22T15:38:40.527Z,8.73
2023-05-22T15:41:08.521Z,8.70
2023-05-22T15:43:36.591Z,8.73
2023-05-22T15:46:04.679Z,9.00
2023-05-22T15:48:33.250Z,8.90
2023-05-22T15:51:01.343Z,8.50
2023-05-22T15:53:29.419Z,8.80
2023-05-22T15:55:58.878Z,8.93
2023-05-22T15:58:28.499Z,8.80
2023-05-22T16:00:56.821Z,8.70
2023-05-22T16:03:25.347Z,8.70
2023-05-22T16:05:53.851Z,8.63
2023-05-22T16:08:21.938Z,8.70
2023-05-22T16:10:50.020Z,8.50
2023-05-22T16:13:19.679Z,8.90
2023-05-22T16:15:47.698Z,8.80
2023-05-22T16:18:15.841Z,8.57
2023-05-22T16:20:43.949Z,8.40
2023-05-22T16:23:11.967Z,8.73
2023-05-22T16:25:40.234Z,8.47
2023-05-22T16:28:08.420Z,8.80
2023-05-22T16:30:39.928Z,8.80
2023-05-22T16:33:08.754Z,8.63
2023-05-22T16:35:36.877Z,8.40
2023-05-22T16:38:06.938Z,8.40
2023-05-22T16:40:34.952Z,8.70
2023-05-22T16:43:04.432Z,8.70
2023-05-22T16:45:32.510Z,8.40
2023-05-22T16:48:02.021Z,8.60
2023-05-22T16:50:30.040Z,8.60
2023-05-22T16:52:58.101Z,8.50
2023-05-22T16:55:26.210Z,8.83
2023-05-22T16:57:54.426Z,8.20
2023-05-22T17:00:23.114Z,8.67
2023-05-22T17:02:56.156Z,8.83
2023-05-22T17:08:50.293Z,8.50
2023-05-22T17:20:45.748Z,8.60
2023-05-22T17:23:15.008Z,8.37
2023-05-22T17:26:07.392Z,8.50
2023-05-22T17:28:38.025Z,8.60
2023-05-22T17:31:07.598Z,8.40
2023-05-22T17:33:36.080Z,8.40
2023-05-22T17:36:04.765Z,8.60
2023-05-22T17:38:33.367Z,8.83
2023-05-22T17:41:02.779Z,8.97
2023-05-22T17:43:35.520Z,8.70
2023-05-22T17:46:06.255Z,8.77
2023-05-22T17:48:34.743Z,8.90
2023-05-22T17:51:03.690Z,8.80
2023-05-22T17:53:34.286Z,8.73
2023-05-22T17:56:03.344Z,8.67
2023-05-22T17:58:31.581Z,9.00
2023-05-22T18:00:59.670Z,8.60
2023-05-22T18:03:30.066Z,8.80
2023-05-22T18:09:37.256Z,8.90
2023-05-22T18:12:10.935Z,8.60
2023-05-22T18:21:01.571Z,8.60
2023-05-22T18:23:59.035Z,8.60
2023-05-22T18:26:27.970Z,8.67
2023-05-22T18:28:56.542Z,9.07
2023-05-22T18:31:25.155Z,8.50
2023-05-22T18:33:53.536Z,8.53
2023-05-22T18:36:23.004Z,8.87
2023-05-22T18:38:51.026Z,8.73
2023-05-22T18:41:19.205Z,8.60
2023-05-22T18:43:47.289Z,8.60
2023-05-22T18:46:15.463Z,8.80
2023-05-22T18:48:43.769Z,8.60
2023-05-22T18:51:13.364Z,8.70
2023-05-22T18:53:44.001Z,8.77
2023-05-22T18:56:13.346Z,8.90
2023-05-22T18:58:42.871Z,8.80
2023-05-22T19:01:11.523Z,8.70
2023-05-22T19:03:41.795Z,8.90
2023-05-22T19:06:10.536Z,8.70
2023-05-22T19:08:38.806Z,8.87
2023-05-22T19:11:08.448Z,8.80
2023-05-22T19:13:36.681Z,8.67
2023-05-22T19:16:05.060Z,8.80
2023-05-22T19:18:33.198Z,8.70
2023-05-22T19:21:01.237Z,8.60
2023-05-22T19:23:29.556Z,8.60
2023-05-22T19:25:58.440Z,8.70
2023-05-22T19:28:28.019Z,9.03
2023-05-22T19:30:58.626Z,8.77
2023-05-22T19:33:27.546Z,8.70
2023-05-22T19:35:55.583Z,8.53
2023-05-22T19:38:24.134Z,8.80
2023-05-22T19:40:52.165Z,8.77
2023-05-22T19:43:20.405Z,8.97
2023-05-22T19:45:49.904Z,8.63
2023-05-22T19:48:18.065Z,8.90
2023-05-22T19:50:46.405Z,8.70
2023-05-22T19:53:14.808Z,8.80
2023-05-22T19:55:42.951Z,8.80
2023-05-22T19:58:11.084Z,8.83
2023-05-22T20:00:39.450Z,8.50
2023-05-22T20:03:09.203Z,8.70
2023-05-22T20:05:37.524Z,8.90
2023-05-22T20:08:05.827Z,8.70
2023-05-22T20:10:33.887Z,8.73
2023-05-22T20:13:01.907Z,8.70
2023-05-22T20:15:30.441Z,8.80
2023-05-22T20:17:58.570Z,9.10
2023-05-22T20:20:27.955Z,9.40
2023-05-22T20:22:57.918Z,9.33
2023-05-22T20:25:26.164Z,9.50
2023-05-22T20:27:54.340Z,9.30
2023-05-22T20:30:22.394Z,9.10
2023-05-22T20:32:50.493Z,9.60
2023-05-22T20:35:20.081Z,9.00
2023-05-22T20:37:50.403Z,9.13
2023-05-22T20:40:18.507Z,9.10
2023-05-22T20:42:47.522Z,9.10
2023-05-22T20:45:16.384Z,9.00
2023-05-22T20:47:44.674Z,8.90
2023-05-22T20:50:12.881Z,9.10
2023-05-22T20:52:40.868Z,9.20
2023-05-22T20:55:11.159Z,9.10
2023-05-22T20:57:39.353Z,9.10
2023-05-22T21:00:13.752Z,8.80
2023-05-22T21:02:41.969Z,8.97
2023-05-22T21:05:11.097Z,9.00
2023-05-22T21:07:39.123Z,9.20
2023-05-22T21:10:10.478Z,9.03
2023-05-22T21:12:38.514Z,8.93
2023-05-22T21:15:08.451Z,8.80
2023-05-22T21:17:36.463Z,8.97
2023-05-22T21:20:05.694Z,9.00
2023-05-22T21:22:33.721Z,8.90
2023-05-22T21:25:01.778Z,9.13
2023-05-22T21:27:31.124Z,8.90
2023-05-22T21:29:59.144Z,8.90
2023-05-22T21:32:27.146Z,9.30
2023-05-22T21:34:55.172Z,9.07
2023-05-22T21:37:23.220Z,9.00
2023-05-22T21:39:51.565Z,9.00
2023-05-22T21:42:20.012Z,8.80
2023-05-22T21:44:49.323Z,9.03
2023-05-22T21:47:17.456Z,9.00
2023-05-22T21:49:45.594Z,9.00
2023-05-22T21:52:13.691Z,9.23
2023-05-22T21:54:41.713Z,9.13
2023-05-22T21:57:09.746Z,9.43
2023-05-22T21:59:38.121Z,9.10
2023-05-22T22:02:07.659Z,8.67
2023-05-22T22:04:35.827Z,9.00
2023-05-22T22:07:04.562Z,9.07
2023-05-22T22:09:32.606Z,9.20
2023-05-22T22:12:00.761Z,9.10
2023-05-22T22:14:28.776Z,9.00
2023-05-22T22:16:56.903Z,9.00
2023-05-22T22:19:26.343Z,9.30
2023-05-22T22:21:54.574Z,9.50
2023-05-22T22:24:22.585Z,9.20
2023-05-22T22:26:51.169Z,8.53
2023-05-22T22:29:19.679Z,9.00
2023-05-22T22:31:48.658Z,9.00
2023-05-22T22:34:17.901Z,8.70
2023-05-22T22:36:47.827Z,8.90
2023-05-22T22:39:17.176Z,9.00
2023-05-22T22:41:46.300Z,9.50
2023-05-22T22:44:14.848Z,9.07
2023-05-22T22:46:44.299Z,9.10
2023-05-22T22:49:12.843Z,9.30
2023-05-22T22:51:42.365Z,9.10
2023-05-22T22:54:15.598Z,9.00
2023-05-22T22:56:44.620Z,9.30
2023-05-22T22:59:13.410Z,9.20
2023-05-22T23:01:42.128Z,9.13
2023-05-22T23:04:11.535Z,9.10
2023-05-22T23:06:42.057Z,8.97
2023-05-22T23:09:12.911Z,9.33
2023-05-22T23:11:41.698Z,9.30
2023-05-22T23:14:10.946Z,9.70
2023-05-22T23:16:41.383Z,9.60
2023-05-22T23:19:11.918Z,9.43
2023-05-22T23:21:40.280Z,9.53
2023-05-22T23:24:10.054Z,9.50
2023-05-22T23:26:39.580Z,8.90
2023-05-22T23:29:08.246Z,9.30
2023-05-22T23:31:36.599Z,9.10
2023-05-22T23:34:04.759Z,9.07
2023-05-22T23:36:33.460Z,9.00
2023-05-22T23:39:01.591Z,8.87
2023-05-22T23:41:29.634Z,8.93
2023-05-22T23:43:59.320Z,9.10
2023-05-22T23:46:27.392Z,9.10
2023-05-22T23:48:55.626Z,8.90
2023-05-22T23:51:23.658Z,8.70
2023-05-22T23:53:52.143Z,8.77
2023-05-22T23:56:20.222Z,8.73
2023-05-22T23:58:48.284Z,8.80
